createdAt,value
2024-03-02T00:01:30.103Z,14.57
2024-03-02T00:04:00.870Z,13.93
2024-03-02T00:06:31.664Z,14.70
2024-03-02T00:09:02.661Z,14.55
2024-03-02T00:11:33.285Z,14.55
2024-03-02T00:14:03.778Z,15.38
2024-03-02T00:16:35.159Z,16.17
2024-03-02T00:19:08.166Z,16.42
2024-03-02T00:21:39.216Z,16.48
2024-03-02T00:24:30.683Z,16.05
2024-03-02T00:27:01.846Z,16.63
2024-03-02T00:29:32.382Z,16.60
2024-03-02T00:32:04.670Z,17.30
2024-03-02T00:34:35.749Z,17.20
2024-03-02T00:37:06.456Z,17.70
2024-03-02T00:39:37.761Z,18.38
2024-03-02T00:42:09.253Z,18.60
2024-03-02T00:44:40.025Z,18.15
2024-03-02T00:47:11.059Z,17.48
2024-03-02T00:49:42.008Z,17.98
2024-03-02T00:52:13.210Z,19.90
2024-03-02T00:54:44.188Z,20.23
2024-03-02T00:57:15.164Z,18.98
2024-03-02T00:59:45.705Z,20.42
2024-03-02T01:02:16.410Z,18.63
2024-03-02T01:04:47.030Z,19.73
2024-03-02T01:07:17.804Z,21.48
2024-03-02T01:09:49.088Z,21.33
2024-03-02T01:12:20.109Z,20.00
2024-03-02T01:14:50.873Z,20.85
2024-03-02T01:17:21.546Z,21.75
2024-03-02T01:19:52.043Z,22.20
2024-03-02T01:22:27.223Z,21.65
2024-03-02T01:24:57.802Z,22.52
2024-03-02T01:27:29.262Z,22.92
2024-03-02T01:30:02.014Z,21.75
2024-03-02T01:32:32.828Z,22.60
2024-03-02T01:35:03.336Z,22.90
2024-03-02T01:37:33.760Z,21.63
2024-03-02T01:40:05.147Z,23.60
2024-03-02T01:42:36.992Z,23.92
2024-03-02T01:45:09.541Z,23.17
2024-03-02T01:47:40.235Z,23.08
2024-03-02T01:50:11.211Z,20.98
2024-03-02T01:52:42.127Z,21.77
2024-03-02T01:55:12.832Z,20.55
2024-03-02T01:57:43.153Z,19.63
2024-03-02T02:00:14.754Z,19.95
2024-03-02T02:02:46.691Z,20.85
2024-03-02T02:07:47.890Z,19.98
2024-03-02T02:10:19.010Z,19.00
2024-03-02T02:12:49.774Z,19.95
2024-03-02T02:15:31.175Z,19.40
2024-03-02T02:18:01.962Z,18.85
2024-03-02T02:20:32.589Z,17.25
2024-03-02T02:23:15.130Z,18.67
2024-03-02T02:25:45.628Z,18.83
2024-03-02T02:28:16.224Z,17.58
2024-03-02T02:30:46.779Z,17.92
2024-03-02T02:33:17.499Z,17.90
2024-03-02T02:35:48.093Z,17.38
2024-03-02T02:38:18.779Z,16.90
2024-03-02T02:40:49.144Z,18.00
2024-03-02T02:43:20.025Z,17.13
2024-03-02T02:45:50.944Z,17.38
2024-03-02T02:48:21.872Z,16.70
2024-03-02T02:50:52.534Z,17.35
2024-03-02T02:53:22.910Z,17.17
2024-03-02T02:55:53.801Z,16.45
2024-03-02T02:58:24.285Z,16.02
2024-03-02T03:00:57.032Z,15.95
2024-03-02T03:03:27.695Z,17.70
2024-03-02T03:05:58.116Z,16.95
2024-03-02T03:08:28.847Z,17.55
2024-03-02T03:11:00.152Z,16.73
2024-03-02T03:13:30.812Z,17.05
2024-03-02T03:16:01.736Z,16.63
2024-03-02T03:18:32.657Z,16.93
2024-03-02T03:21:03.083Z,15.70
2024-03-02T03:23:33.771Z,16.13
2024-03-02T03:26:04.297Z,15.38
2024-03-02T03:28:35.084Z,15.73
2024-03-02T03:31:05.976Z,15.45
2024-03-02T03:33:36.956Z,14.57
2024-03-02T03:36:07.947Z,14.27
2024-03-02T03:38:38.657Z,14.68
2024-03-02T03:41:09.327Z,14.02
2024-03-02T03:43:39.883Z,13.80
2024-03-02T03:46:10.368Z,13.77
2024-03-02T03:48:41.048Z,14.80
2024-03-02T03:51:11.787Z,13.50
2024-03-02T03:53:42.325Z,13.93
2024-03-02T03:56:12.929Z,12.68
2024-03-02T03:58:43.718Z,13.25
2024-03-02T04:01:14.276Z,12.40
2024-03-02T04:03:45.268Z,13.63
2024-03-02T04:06:16.352Z,12.90
2024-03-02T04:08:47.290Z,12.73
2024-03-02T04:11:18.811Z,12.82
2024-03-02T04:13:49.505Z,12.07
2024-03-02T04:16:19.990Z,12.52
2024-03-02T04:18:51.191Z,11.85
2024-03-02T04:21:21.921Z,11.83
2024-03-02T04:23:52.685Z,11.65
2024-03-02T04:26:24.352Z,11.57
2024-03-02T04:31:26.061Z,10.68
2024-03-02T04:33:56.939Z,10.18
2024-03-02T04:36:27.625Z,10.10
2024-03-02T04:38:59.220Z,10.27
2024-03-02T04:41:29.999Z,10.00
2024-03-02T04:44:00.792Z,10.13
2024-03-02T04:46:31.141Z,9.95
2024-03-02T04:49:01.706Z,9.55
2024-03-02T04:51:32.280Z,10.02
2024-03-02T04:56:34.188Z,9.23
2024-03-02T04:59:04.939Z,8.20
2024-03-02T05:01:36.153Z,9.00
2024-03-02T05:04:07.392Z,8.60
2024-03-02T05:06:38.068Z,8.40
2024-03-02T05:09:09.763Z,8.15
2024-03-02T05:11:40.978Z,8.77
2024-03-02T05:14:11.754Z,8.57
2024-03-02T05:16:43.622Z,8.70
2024-03-02T05:19:14.641Z,8.43
2024-03-02T05:21:45.695Z,8.60
2024-03-02T05:24:17.306Z,7.83
2024-03-02T05:26:48.420Z,8.48
2024-03-02T05:29:19.521Z,8.60
2024-03-02T05:31:50.868Z,8.35
2024-03-02T05:34:21.907Z,8.55
2024-03-02T05:36:52.872Z,8.33
2024-03-02T05:39:23.779Z,8.70
2024-03-02T05:41:54.432Z,8.38
2024-03-02T05:44:25.606Z,8.67
2024-03-02T05:46:56.131Z,8.80
2024-03-02T05:49:27.166Z,8.88
2024-03-02T05:51:58.096Z,9.25
2024-03-02T05:54:29.103Z,8.40
2024-03-02T05:57:18.713Z,9.05
2024-03-02T05:59:49.781Z,8.10
2024-03-02T06:02:20.381Z,9.18
2024-03-02T06:04:51.284Z,8.30
2024-03-02T06:07:22.021Z,9.05
2024-03-02T06:09:54.659Z,9.38
2024-03-02T06:12:26.400Z,9.55
2024-03-02T06:14:57.294Z,8.48
2024-03-02T06:17:28.232Z,8.60
2024-03-02T06:19:59.353Z,9.00
2024-03-02T06:22:30.263Z,8.60
2024-03-02T06:25:01.939Z,8.88
2024-03-02T06:27:35.187Z,8.55
2024-03-02T06:30:06.904Z,9.45
2024-03-02T06:32:40.535Z,8.50
2024-03-02T06:35:12.312Z,10.95
2024-03-02T06:37:43.421Z,12.23
2024-03-02T06:40:14.508Z,12.70
2024-03-02T06:42:45.509Z,12.87
2024-03-02T06:45:17.681Z,11.43
2024-03-02T06:47:48.595Z,13.50
2024-03-02T06:50:20.385Z,11.82
2024-03-02T06:52:51.085Z,11.98
2024-03-02T06:55:22.170Z,12.88
2024-03-02T06:57:54.409Z,12.48
2024-03-02T07:00:25.696Z,12.45
2024-03-02T07:02:56.684Z,11.90
2024-03-02T07:05:27.658Z,12.27
2024-03-02T07:07:58.435Z,12.83
2024-03-02T07:10:29.354Z,12.17
2024-03-02T07:13:01.163Z,12.43
2024-03-02T07:16:07.154Z,12.05
2024-03-02T07:18:43.821Z,12.43
2024-03-02T07:21:14.854Z,12.60
2024-03-02T07:23:45.463Z,12.32
2024-03-02T07:28:51.345Z,11.93
2024-03-02T07:31:22.204Z,11.93
2024-03-02T07:33:53.113Z,13.10
2024-03-02T07:36:24.156Z,12.53
2024-03-02T07:38:55.176Z,12.48
2024-03-02T07:41:26.176Z,12.17
2024-03-02T07:43:57.744Z,12.98
2024-03-02T07:46:28.384Z,12.32
2024-03-02T07:48:59.335Z,12.93
2024-03-02T07:51:30.302Z,12.83
2024-03-02T07:54:01.225Z,12.60
2024-03-02T07:56:32.331Z,11.88
2024-03-02T07:59:04.213Z,13.32
2024-03-02T08:01:35.754Z,12.27
2024-03-02T08:04:07.009Z,12.20
2024-03-02T08:06:38.195Z,12.27
2024-03-02T08:09:12.326Z,11.73
2024-03-02T08:11:43.328Z,12.15
2024-03-02T08:14:14.853Z,12.38
2024-03-02T08:16:50.244Z,12.98
2024-03-02T08:19:21.391Z,12.73
2024-03-02T08:21:52.472Z,12.35
2024-03-02T08:24:25.544Z,12.10
2024-03-02T08:26:56.703Z,12.38
2024-03-02T08:29:27.739Z,12.27
2024-03-02T08:31:59.039Z,13.45
2024-03-02T08:34:29.996Z,12.40
2024-03-02T08:37:01.050Z,11.57
2024-03-02T08:39:32.327Z,12.88
2024-03-02T08:42:03.194Z,12.38
2024-03-02T08:44:33.916Z,11.70
2024-03-02T08:47:05.046Z,11.82
2024-03-02T08:49:36.117Z,11.57
2024-03-02T08:52:07.408Z,12.10
2024-03-02T08:54:39.889Z,10.57
2024-03-02T08:57:10.945Z,10.63
2024-03-02T08:59:41.958Z,11.32
2024-03-02T09:02:13.302Z,10.63
2024-03-02T09:04:46.407Z,11.23
2024-03-02T09:07:17.633Z,11.30
2024-03-02T09:09:48.579Z,10.65
2024-03-02T09:12:19.430Z,11.18
2024-03-02T09:14:53.870Z,10.27
2024-03-02T09:17:25.210Z,10.85
2024-03-02T09:19:56.527Z,10.05
2024-03-02T09:22:27.758Z,9.50
2024-03-02T09:24:59.024Z,11.65
2024-03-02T09:27:30.418Z,18.92
2024-03-02T09:30:01.813Z,22.42
2024-03-02T09:35:03.976Z,17.73
2024-03-02T09:37:35.200Z,17.15
2024-03-02T09:40:06.810Z,13.30
2024-03-02T09:42:39.217Z,12.40
2024-03-02T09:45:10.708Z,11.52
2024-03-02T09:47:41.780Z,10.15
2024-03-02T09:50:12.803Z,8.97
2024-03-02T09:52:45.878Z,9.13
2024-03-02T09:55:18.110Z,7.82
2024-03-02T09:57:51.000Z,7.18
2024-03-02T10:00:22.211Z,7.03
2024-03-02T10:02:54.401Z,6.53
2024-03-02T10:05:32.272Z,6.50
2024-03-02T10:08:04.573Z,6.25
2024-03-02T10:10:45.260Z,5.97
2024-03-02T10:13:17.211Z,5.60
2024-03-02T10:15:50.055Z,5.15
2024-03-02T10:18:33.972Z,4.68
2024-03-02T10:21:22.791Z,4.18
2024-03-02T10:23:53.710Z,4.68
2024-03-02T10:26:24.688Z,4.23
2024-03-02T10:29:01.775Z,4.20
2024-03-02T10:31:34.809Z,3.95
2024-03-02T10:34:06.736Z,3.92
2024-03-02T10:36:38.881Z,4.25
2024-03-02T10:39:10.952Z,3.97
2024-03-02T10:41:43.248Z,4.10
2024-03-02T10:44:15.926Z,4.05
2024-03-02T10:46:50.134Z,4.30
2024-03-02T10:49:21.903Z,3.40
2024-03-02T10:51:53.245Z,3.95
2024-03-02T10:54:29.104Z,3.65
2024-03-02T10:57:02.683Z,3.97
2024-03-02T10:59:38.997Z,4.60
2024-03-02T11:02:16.134Z,4.03
2024-03-02T11:04:50.872Z,4.28
2024-03-02T11:07:25.650Z,4.60
2024-03-02T11:10:10.928Z,4.88
2024-03-02T11:12:53.251Z,4.30
2024-03-02T11:15:28.864Z,4.40
2024-03-02T11:18:02.160Z,3.92
2024-03-02T11:20:37.827Z,4.75
2024-03-02T11:23:11.195Z,5.32
2024-03-02T11:25:42.377Z,4.25
2024-03-02T11:28:13.545Z,4.72
2024-03-02T11:30:44.590Z,4.32
2024-03-02T11:33:15.699Z,3.67
2024-03-02T11:35:50.053Z,3.60
2024-03-02T11:38:22.062Z,4.03
2024-03-02T11:40:53.395Z,4.43
2024-03-02T11:43:25.537Z,4.05
2024-03-02T11:46:06.688Z,4.30
2024-03-02T11:48:41.837Z,4.03
2024-03-02T11:51:14.734Z,3.38
2024-03-02T11:53:47.480Z,4.30
2024-03-02T11:56:19.852Z,4.47
2024-03-02T11:58:53.838Z,5.50
2024-03-02T12:01:25.936Z,4.88
2024-03-02T12:03:57.928Z,4.28
2024-03-02T12:06:29.166Z,4.15
2024-03-02T12:09:01.073Z,3.95
2024-03-02T12:11:32.060Z,4.20
2024-03-02T12:14:02.910Z,4.10
2024-03-02T12:16:33.965Z,4.43
2024-03-02T12:19:06.040Z,4.18
2024-03-02T12:21:37.503Z,3.78
2024-03-02T12:24:12.592Z,3.92
2024-03-02T12:26:44.259Z,3.25
2024-03-02T12:29:17.737Z,4.80
2024-03-02T12:31:50.791Z,4.38
2024-03-02T12:34:24.596Z,5.20
2024-03-02T12:36:56.147Z,4.50
2024-03-02T12:39:27.512Z,5.53
2024-03-02T12:41:58.511Z,5.75
2024-03-02T12:44:29.652Z,5.70
2024-03-02T12:47:02.276Z,5.68
2024-03-02T12:49:34.690Z,5.75
2024-03-02T12:52:06.120Z,5.90
2024-03-02T12:54:37.368Z,6.03
2024-03-02T12:57:08.592Z,5.35
2024-03-02T12:59:39.646Z,6.63
2024-03-02T13:02:15.559Z,6.10
2024-03-02T13:04:47.061Z,6.45
2024-03-02T13:07:18.426Z,6.07
2024-03-02T13:09:49.674Z,8.35
2024-03-02T13:12:23.050Z,8.88
2024-03-02T13:14:57.262Z,7.85
2024-03-02T13:17:30.576Z,8.10
2024-03-02T13:20:06.674Z,7.90
2024-03-02T13:22:39.650Z,7.45
2024-03-02T13:25:13.481Z,9.15
2024-03-02T13:27:45.478Z,7.80
2024-03-02T13:30:16.650Z,8.50
2024-03-02T13:32:47.681Z,8.00
2024-03-02T13:35:20.308Z,8.55
2024-03-02T13:37:56.298Z,10.35
2024-03-02T13:40:27.695Z,8.38
2024-03-02T13:43:00.581Z,8.90
2024-03-02T13:45:32.431Z,7.53
2024-03-02T13:48:08.796Z,7.53
2024-03-02T13:50:45.622Z,7.45
2024-03-02T13:53:18.488Z,7.90
2024-03-02T13:55:50.337Z,7.75
2024-03-02T13:58:23.332Z,9.85
2024-03-02T14:00:54.862Z,8.15
2024-03-02T14:03:31.619Z,8.45
2024-03-02T14:06:05.390Z,8.15
2024-03-02T14:08:38.212Z,7.78
2024-03-02T14:11:09.499Z,8.13
2024-03-02T14:13:43.877Z,7.30
2024-03-02T14:16:17.454Z,6.95
2024-03-02T14:18:50.655Z,6.87
2024-03-02T14:21:23.396Z,6.78
2024-03-02T14:23:54.869Z,7.30
2024-03-02T14:26:26.203Z,6.75
2024-03-02T14:28:58.569Z,6.47
2024-03-02T14:31:29.968Z,6.72
2024-03-02T14:34:04.819Z,6.28
2024-03-02T14:36:38.347Z,6.93
2024-03-02T14:39:12.524Z,6.57
2024-03-02T14:41:45.446Z,6.82
2024-03-02T14:44:17.537Z,6.18
2024-03-02T14:46:53.042Z,6.43
2024-03-02T14:49:24.525Z,5.40
2024-03-02T14:51:58.551Z,6.05
2024-03-02T14:54:31.767Z,5.93
2024-03-02T14:57:05.078Z,4.90
2024-03-02T14:59:37.556Z,5.75
2024-03-02T15:02:11.462Z,5.50
2024-03-02T15:04:42.940Z,5.22
2024-03-02T15:07:15.619Z,6.40
2024-03-02T15:09:48.086Z,5.55
2024-03-02T15:12:20.177Z,5.32
2024-03-02T15:14:54.338Z,5.00
2024-03-02T15:17:25.776Z,5.00
2024-03-02T15:19:56.980Z,4.57
2024-03-02T15:22:33.726Z,4.78
2024-03-02T15:25:05.723Z,5.05
2024-03-02T15:27:37.712Z,4.80
2024-03-02T15:32:50.590Z,4.88
2024-03-02T15:35:22.315Z,4.60
2024-03-02T15:37:56.105Z,4.47
2024-03-02T15:40:32.155Z,4.57
2024-03-02T15:43:03.474Z,4.57
2024-03-02T15:45:36.414Z,4.90
2024-03-02T15:48:08.217Z,4.13
2024-03-02T15:50:44.143Z,4.65
2024-03-02T15:53:16.215Z,4.30
2024-03-02T15:58:23.558Z,4.13
2024-03-02T16:00:55.067Z,4.72
2024-03-02T16:03:27.746Z,3.97
2024-03-02T16:05:59.434Z,5.10
2024-03-02T16:08:36.918Z,4.15
2024-03-02T16:11:12.099Z,3.85
2024-03-02T16:13:43.326Z,4.15
2024-03-02T16:16:15.149Z,3.90
2024-03-02T16:18:46.635Z,3.97
2024-03-02T16:21:18.255Z,5.47
2024-03-02T16:23:50.536Z,4.18
2024-03-02T16:26:23.813Z,4.35
2024-03-02T16:28:59.760Z,4.25
2024-03-02T16:31:33.964Z,4.18
2024-03-02T16:34:05.676Z,5.07
2024-03-02T16:36:40.689Z,4.03
2024-03-02T16:39:13.336Z,3.83
2024-03-02T16:41:50.036Z,3.90
2024-03-02T16:44:27.470Z,4.28
2024-03-02T16:46:59.245Z,4.60
2024-03-02T16:49:30.476Z,5.32
2024-03-02T16:52:06.928Z,3.97
2024-03-02T16:54:46.708Z,4.22
2024-03-02T16:57:19.459Z,4.25
2024-03-02T16:59:51.011Z,3.97
2024-03-02T17:02:22.517Z,3.60
2024-03-02T17:04:53.884Z,4.50
2024-03-02T17:07:27.714Z,4.00
2024-03-02T17:10:01.883Z,4.60
2024-03-02T17:12:36.639Z,4.18
2024-03-02T17:15:09.400Z,4.68
2024-03-02T17:17:41.646Z,4.13
2024-03-02T17:20:16.146Z,3.85
2024-03-02T17:22:51.859Z,4.47
2024-03-02T17:25:25.069Z,3.80
2024-03-02T17:28:34.401Z,3.53
2024-03-02T17:31:06.280Z,4.63
2024-03-02T17:33:38.922Z,4.05
2024-03-02T17:36:10.463Z,4.40
2024-03-02T17:38:45.128Z,4.35
2024-03-02T17:41:19.223Z,4.45
2024-03-02T17:43:50.402Z,4.30
2024-03-02T17:46:21.708Z,3.63
2024-03-02T17:48:52.709Z,3.70
2024-03-02T17:51:29.442Z,3.65
2024-03-02T17:54:03.263Z,4.07
2024-03-02T17:56:34.776Z,4.15
2024-03-02T17:59:08.400Z,3.50
2024-03-02T18:01:41.208Z,3.95
2024-03-02T18:04:13.417Z,4.72
2024-03-02T18:06:44.627Z,5.13
2024-03-02T18:09:15.891Z,3.67
2024-03-02T18:11:48.435Z,4.32
2024-03-02T18:14:19.826Z,4.47
2024-03-02T18:16:52.422Z,4.10
2024-03-02T18:19:26.067Z,4.25
2024-03-02T18:21:57.145Z,4.00
2024-03-02T18:24:34.204Z,3.95
2024-03-02T18:27:08.474Z,4.40
2024-03-02T18:29:40.211Z,4.30
2024-03-02T18:32:11.517Z,4.88
2024-03-02T18:34:42.714Z,4.40
2024-03-02T18:37:14.008Z,4.25
2024-03-02T18:39:46.185Z,3.92
2024-03-02T18:44:49.522Z,4.72
2024-03-02T18:49:50.616Z,4.68
2024-03-02T18:52:21.804Z,4.22
2024-03-02T18:54:52.894Z,4.28
2024-03-02T18:57:24.027Z,4.97
2024-03-02T18:59:55.181Z,5.25
2024-03-02T19:02:27.100Z,4.63
2024-03-02T19:07:28.220Z,4.95
2024-03-02T19:09:59.385Z,4.88
2024-03-02T19:12:30.324Z,4.40
2024-03-02T19:15:03.167Z,5.13
2024-03-02T19:17:36.929Z,4.50
2024-03-02T19:20:09.666Z,5.10
2024-03-02T19:22:40.795Z,4.65
2024-03-02T19:25:15.590Z,4.07
2024-03-02T19:27:46.930Z,5.43
2024-03-02T19:30:18.014Z,4.07
2024-03-02T19:32:49.023Z,4.87
2024-03-02T19:35:19.824Z,4.53
2024-03-02T19:37:50.396Z,5.25
2024-03-02T19:40:21.396Z,4.53
2024-03-02T19:42:52.520Z,4.73
2024-03-02T19:45:23.311Z,4.72
2024-03-02T19:47:54.442Z,4.55
2024-03-02T19:50:25.473Z,4.87
2024-03-02T19:52:56.306Z,4.57
2024-03-02T19:55:31.710Z,4.70
2024-03-02T19:58:02.652Z,4.25
2024-03-02T20:00:33.548Z,4.45
2024-03-02T20:03:05.381Z,4.80
2024-03-02T20:05:36.253Z,5.18
2024-03-02T20:08:09.541Z,5.25
2024-03-02T20:10:40.248Z,4.90
2024-03-02T20:13:11.184Z,4.85
2024-03-02T20:15:42.993Z,5.32
2024-03-02T20:18:14.825Z,5.47
2024-03-02T20:20:45.527Z,5.40
2024-03-02T20:23:15.990Z,5.78
2024-03-02T20:25:46.747Z,5.85
2024-03-02T20:28:19.140Z,5.93
2024-03-02T20:30:49.863Z,5.60
2024-03-02T20:33:20.669Z,5.80
2024-03-02T20:35:51.157Z,5.40
2024-03-02T20:38:21.730Z,5.65
2024-03-02T20:40:53.488Z,5.90
2024-03-02T20:43:24.448Z,5.45
2024-03-02T20:45:54.917Z,5.40
2024-03-02T20:48:25.656Z,5.30
2024-03-02T20:50:57.102Z,5.32
2024-03-02T20:53:27.775Z,5.57
2024-03-02T20:55:58.253Z,5.50
2024-03-02T20:58:28.976Z,5.95
2024-03-02T21:01:00.079Z,5.53
2024-03-02T21:03:30.996Z,5.53
2024-03-02T21:06:02.959Z,5.53
2024-03-02T21:08:33.546Z,5.90
2024-03-02T21:11:07.427Z,5.13
2024-03-02T21:13:38.026Z,5.30
2024-03-02T21:16:09.353Z,5.05
2024-03-02T21:18:41.271Z,5.78
2024-03-02T21:21:15.142Z,5.60
2024-03-02T21:23:45.640Z,5.43
2024-03-02T21:26:15.905Z,5.68
2024-03-02T21:28:47.319Z,5.72
2024-03-02T21:31:18.815Z,5.38
2024-03-02T21:33:49.655Z,5.22
2024-03-02T21:36:20.170Z,6.10
2024-03-02T21:38:50.751Z,5.30
2024-03-02T21:41:21.141Z,5.70
2024-03-02T21:43:51.978Z,6.32
2024-03-02T21:46:22.668Z,5.20
2024-03-02T21:48:53.736Z,5.22
2024-03-02T21:51:24.590Z,6.17
2024-03-02T21:53:55.876Z,6.05
2024-03-02T21:56:27.053Z,6.38
2024-03-02T21:58:57.691Z,5.88
2024-03-02T22:01:29.296Z,6.45
2024-03-02T22:06:30.102Z,5.68
2024-03-02T22:09:00.857Z,6.45
2024-03-02T22:11:31.192Z,5.85
2024-03-02T22:14:01.977Z,6.25
2024-03-02T22:16:32.662Z,6.60
2024-03-02T22:19:03.019Z,5.30
2024-03-02T22:21:33.521Z,5.85
2024-03-02T22:24:04.301Z,6.10
2024-03-02T22:26:34.946Z,6.00
2024-03-02T22:29:06.141Z,6.27
2024-03-02T22:31:36.926Z,6.65
2024-03-02T22:34:07.863Z,5.72
2024-03-02T22:36:39.067Z,6.13
2024-03-02T22:39:09.946Z,6.22
2024-03-02T22:41:40.798Z,6.60
2024-03-02T22:44:11.303Z,6.63
2024-03-02T22:46:41.982Z,6.43
2024-03-02T22:49:12.811Z,6.15
2024-03-02T22:51:43.685Z,6.53
2024-03-02T22:54:14.221Z,6.72
2024-03-02T22:56:46.042Z,6.35
2024-03-02T23:01:46.964Z,7.25
2024-03-02T23:04:17.923Z,6.70
2024-03-02T23:06:48.612Z,7.93
2024-03-02T23:09:19.203Z,8.63
2024-03-02T23:11:51.016Z,9.45
2024-03-02T23:14:21.788Z,10.50
2024-03-02T23:16:52.214Z,9.55
2024-03-02T23:19:24.392Z,10.40
2024-03-02T23:21:55.093Z,9.23
2024-03-02T23:24:25.703Z,10.43
2024-03-02T23:26:56.020Z,9.45
2024-03-02T23:29:27.325Z,10.77
2024-03-02T23:31:57.983Z,9.73
2024-03-02T23:34:29.825Z,11.00
2024-03-02T23:37:00.521Z,10.05
2024-03-02T23:39:49.218Z,9.30
2024-03-02T23:42:19.956Z,10.00
2024-03-02T23:44:50.609Z,10.05
2024-03-02T23:47:21.266Z,9.48
2024-03-02T23:49:51.966Z,9.90
2024-03-02T23:52:22.528Z,9.48
2024-03-02T23:54:53.083Z,10.38
2024-03-02T23:57:23.724Z,9.57
2024-03-02T23:59:54.424Z,9.75
